sensor_id;sensor_type;location;lat;lon;timestamp;pressure;altitude;pressure_sealevel;temperature;humidity
65534;BME280;53640;55.838;37.184;2024-01-07T00:00:13;99227.94;;;-20.03;48.49
65534;BME280;53640;55.838;37.184;2024-01-07T00:02:40;99361.22;;;-19.28;48.67
65534;BME280;53640;55.838;37.184;2024-01-07T00:05:06;99340.09;;;-19.43;48.36
65534;BME280;53640;55.838;37.184;2024-01-07T00:07:34;99304.59;;;-19.73;48.05
65534;BME280;53640;55.838;37.184;2024-01-07T00:10:00;99319.22;;;-19.73;47.94
65534;BME280;53640;55.838;37.184;2024-01-07T00:12:27;99317.78;;;-19.88;48.00
65534;BME280;53640;55.838;37.184;2024-01-07T00:14:54;99376.50;;;-19.60;47.89
65534;BME280;53640;55.838;37.184;2024-01-07T00:17:20;99344.44;;;-19.89;47.70
65534;BME280;53640;55.838;37.184;2024-01-07T00:19:46;99368.25;;;-19.78;48.16
65534;BME280;53640;55.838;37.184;2024-01-07T00:22:13;99369.16;;;-19.80;48.29
65534;BME280;53640;55.838;37.184;2024-01-07T00:24:39;99373.47;;;-19.81;48.32
65534;BME280;53640;55.838;37.184;2024-01-07T00:27:05;99347.13;;;-19.97;48.28
65534;BME280;53640;55.838;37.184;2024-01-07T00:29:33;99342.22;;;-20.10;48.18
65534;BME280;53640;55.838;37.184;2024-01-07T00:32:02;99382.22;;;-19.91;48.13
65534;BME280;53640;55.838;37.184;2024-01-07T00:34:28;99341.53;;;-20.20;47.80
65534;BME280;53640;55.838;37.184;2024-01-07T00:36:55;99345.91;;;-20.25;47.88
65534;BME280;53640;55.838;37.184;2024-01-07T00:39:21;99419.13;;;-19.90;48.10
65534;BME280;53640;55.838;37.184;2024-01-07T00:41:48;99406.38;;;-19.98;47.97
65534;BME280;53640;55.838;37.184;2024-01-07T00:44:14;99391.84;;;-20.02;48.08
65534;BME280;53640;55.838;37.184;2024-01-07T00:46:40;99365.63;;;-20.24;47.15
65534;BME280;53640;55.838;37.184;2024-01-07T00:49:07;99368.31;;;-20.30;47.30
65534;BME280;53640;55.838;37.184;2024-01-07T00:51:33;99292.91;;;-20.88;47.51
65534;BME280;53640;55.838;37.184;2024-01-07T00:54:00;99415.38;;;-20.24;47.57
65534;BME280;53640;55.838;37.184;2024-01-07T00:56:28;99378.84;;;-20.47;47.65
65534;BME280;53640;55.838;37.184;2024-01-07T00:58:54;99395.09;;;-20.44;47.78
65534;BME280;53640;55.838;37.184;2024-01-07T01:01:22;99377.31;;;-20.59;47.37
65534;BME280;53640;55.838;37.184;2024-01-07T01:03:49;99353.75;;;-20.87;47.26
65534;BME280;53640;55.838;37.184;2024-01-07T01:06:15;99426.16;;;-20.57;47.71
65534;BME280;53640;55.838;37.184;2024-01-07T01:08:42;99419.41;;;-20.64;47.51
65534;BME280;53640;55.838;37.184;2024-01-07T01:11:11;99424.69;;;-20.71;47.72
65534;BME280;53640;55.838;37.184;2024-01-07T01:13:38;99422.13;;;-20.71;47.71
65534;BME280;53640;55.838;37.184;2024-01-07T01:16:04;99419.72;;;-20.83;47.73
65534;BME280;53640;55.838;37.184;2024-01-07T01:18:30;99416.97;;;-20.72;48.13
65534;BME280;53640;55.838;37.184;2024-01-07T01:20:58;99417.00;;;-20.74;47.73
65534;BME280;53640;55.838;37.184;2024-01-07T01:23:24;99450.28;;;-20.64;47.76
65534;BME280;53640;55.838;37.184;2024-01-07T01:25:50;99447.84;;;-20.71;47.79
65534;BME280;53640;55.838;37.184;2024-01-07T01:28:17;99475.97;;;-20.60;47.28
65534;BME280;53640;55.838;37.184;2024-01-07T01:30:44;99438.66;;;-20.90;47.25
65534;BME280;53640;55.838;37.184;2024-01-07T01:33:10;99493.88;;;-20.54;47.42
65534;BME280;53640;55.838;37.184;2024-01-07T01:35:36;99437.00;;;-20.94;47.12
65534;BME280;53640;55.838;37.184;2024-01-07T01:38:03;99471.97;;;-20.79;47.01
65534;BME280;53640;55.838;37.184;2024-01-07T01:40:29;99444.75;;;-20.99;47.22
65534;BME280;53640;55.838;37.184;2024-01-07T01:42:56;99433.75;;;-21.08;47.17
65534;BME280;53640;55.838;37.184;2024-01-07T01:45:22;99517.25;;;-20.67;47.30
65534;BME280;53640;55.838;37.184;2024-01-07T01:47:49;99452.63;;;-21.09;47.32
65534;BME280;53640;55.838;37.184;2024-01-07T01:50:16;99406.72;;;-21.38;46.96
65534;BME280;53640;55.838;37.184;2024-01-07T01:52:48;99483.31;;;-20.97;47.28
65534;BME280;53640;55.838;37.184;2024-01-07T01:55:15;99467.22;;;-21.14;47.30
65534;BME280;53640;55.838;37.184;2024-01-07T01:57:41;99526.84;;;-20.83;47.48
65534;BME280;53640;55.838;37.184;2024-01-07T02:00:09;99509.81;;;-20.90;47.47
65534;BME280;53640;55.838;37.184;2024-01-07T02:02:37;99532.00;;;-20.82;47.43
65534;BME280;53640;55.838;37.184;2024-01-07T02:05:03;99534.63;;;-20.88;47.46
65534;BME280;53640;55.838;37.184;2024-01-07T02:07:31;99498.00;;;-21.05;47.25
65534;BME280;53640;55.838;37.184;2024-01-07T02:09:57;99458.88;;;-21.33;47.09
65534;BME280;53640;55.838;37.184;2024-01-07T02:12:24;99551.75;;;-20.87;46.91
65534;BME280;53640;55.838;37.184;2024-01-07T02:14:51;99555.97;;;-20.80;46.98
65534;BME280;53640;55.838;37.184;2024-01-07T02:17:18;99562.84;;;-20.83;47.18
65534;BME280;53640;55.838;37.184;2024-01-07T02:19:46;99524.59;;;-21.09;46.65
65534;BME280;53640;55.838;37.184;2024-01-07T02:22:12;99569.81;;;-20.92;46.56
65534;BME280;53640;55.838;37.184;2024-01-07T02:24:39;99556.25;;;-21.07;46.42
65534;BME280;53640;55.838;37.184;2024-01-07T02:27:05;99518.81;;;-21.31;46.28
65534;BME280;53640;55.838;37.184;2024-01-07T02:29:31;99446.53;;;-21.79;46.84
65534;BME280;53640;55.838;37.184;2024-01-07T02:31:58;99514.63;;;-21.42;46.56
65534;BME280;53640;55.838;37.184;2024-01-07T02:34:24;99463.63;;;-21.77;46.61
65534;BME280;53640;55.838;37.184;2024-01-07T02:36:50;99504.44;;;-21.49;46.64
65534;BME280;53640;55.838;37.184;2024-01-07T02:39:17;99535.16;;;-21.40;46.35
65534;BME280;53640;55.838;37.184;2024-01-07T02:41:44;99519.81;;;-21.46;46.24
65534;BME280;53640;55.838;37.184;2024-01-07T02:44:10;99559.13;;;-21.35;46.08
65534;BME280;53640;55.838;37.184;2024-01-07T02:46:36;99542.16;;;-21.54;45.88
65534;BME280;53640;55.838;37.184;2024-01-07T02:49:03;99572.06;;;-21.49;45.89
65534;BME280;53640;55.838;37.184;2024-01-07T02:51:29;99572.09;;;-21.52;45.98
65534;BME280;53640;55.838;37.184;2024-01-07T02:53:55;99540.66;;;-21.77;45.80
65534;BME280;53640;55.838;37.184;2024-01-07T02:56:22;99583.25;;;-21.54;45.59
65534;BME280;53640;55.838;37.184;2024-01-07T02:58:48;99590.13;;;-21.56;45.90
65534;BME280;53640;55.838;37.184;2024-01-07T03:01:15;99585.06;;;-21.69;45.69
65534;BME280;53640;55.838;37.184;2024-01-07T03:03:42;99600.50;;;-21.72;45.80
65534;BME280;53640;55.838;37.184;2024-01-07T03:06:09;99565.69;;;-22.09;45.42
65534;BME280;53640;55.838;37.184;2024-01-07T03:08:35;99487.38;;;-22.66;45.60
65534;BME280;53640;55.838;37.184;2024-01-07T03:11:05;99605.88;;;-22.08;45.50
65534;BME280;53640;55.838;37.184;2024-01-07T03:13:34;99542.81;;;-22.45;45.77
65534;BME280;53640;55.838;37.184;2024-01-07T03:16:00;99565.00;;;-22.39;45.98
65534;BME280;53640;55.838;37.184;2024-01-07T03:18:27;99623.03;;;-22.10;46.19
65534;BME280;53640;55.838;37.184;2024-01-07T03:20:55;99643.50;;;-22.01;45.96
65534;BME280;53640;55.838;37.184;2024-01-07T03:23:22;99635.84;;;-22.09;46.18
65534;BME280;53640;55.838;37.184;2024-01-07T03:25:48;99614.56;;;-22.29;45.81
65534;BME280;53640;55.838;37.184;2024-01-07T03:28:14;99635.88;;;-22.13;45.91
65534;BME280;53640;55.838;37.184;2024-01-07T03:30:41;99600.94;;;-22.44;45.95
65534;BME280;53640;55.838;37.184;2024-01-07T03:33:08;99659.88;;;-22.22;45.95
65534;BME280;53640;55.838;37.184;2024-01-07T03:35:34;99624.06;;;-22.57;45.42
65534;BME280;53640;55.838;37.184;2024-01-07T03:38:00;99628.31;;;-22.53;45.62
65534;BME280;53640;55.838;37.184;2024-01-07T03:40:28;99648.84;;;-22.52;45.97
65534;BME280;53640;55.838;37.184;2024-01-07T03:42:55;99618.13;;;-22.66;45.70
65534;BME280;53640;55.838;37.184;2024-01-07T03:45:21;99584.91;;;-22.85;45.85
65534;BME280;53640;55.838;37.184;2024-01-07T03:47:47;99638.56;;;-22.50;45.37
65534;BME280;53640;55.838;37.184;2024-01-07T03:50:14;99662.53;;;-22.48;45.54
65534;BME280;53640;55.838;37.184;2024-01-07T03:52:40;99630.09;;;-22.71;45.54
65534;BME280;53640;55.838;37.184;2024-01-07T03:55:07;99642.91;;;-22.69;45.60
65534;BME280;53640;55.838;37.184;2024-01-07T03:57:33;99578.97;;;-23.17;45.52
65534;BME280;53640;55.838;37.184;2024-01-07T04:00:00;99672.81;;;-22.65;45.67
65534;BME280;53640;55.838;37.184;2024-01-07T04:02:26;99665.13;;;-22.71;45.75
65534;BME280;53640;55.838;37.184;2024-01-07T04:04:52;99683.91;;;-22.65;45.67
65534;BME280;53640;55.838;37.184;2024-01-07T04:07:19;99645.56;;;-22.94;45.48
65534;BME280;53640;55.838;37.184;2024-01-07T04:09:45;99704.41;;;-22.68;45.55
65534;BME280;53640;55.838;37.184;2024-01-07T04:12:12;99631.06;;;-23.08;45.72
65534;BME280;53640;55.838;37.184;2024-01-07T04:14:42;99643.84;;;-22.93;45.67
65534;BME280;53640;55.838;37.184;2024-01-07T04:17:09;99706.13;;;-22.68;45.38
65534;BME280;53640;55.838;37.184;2024-01-07T04:19:38;99696.75;;;-22.69;45.34
65534;BME280;53640;55.838;37.184;2024-01-07T04:22:06;99694.22;;;-22.77;45.49
65534;BME280;53640;55.838;37.184;2024-01-07T04:24:32;99717.28;;;-22.80;45.31
65534;BME280;53640;55.838;37.184;2024-01-07T04:26:58;99681.44;;;-23.00;45.09
65534;BME280;53640;55.838;37.184;2024-01-07T04:29:26;99719.88;;;-22.87;45.15
65534;BME280;53640;55.838;37.184;2024-01-07T04:31:53;99713.88;;;-22.99;45.00
65534;BME280;53640;55.838;37.184;2024-01-07T04:34:20;99650.72;;;-23.38;45.44
65534;BME280;53640;55.838;37.184;2024-01-07T04:36:48;99729.28;;;-23.00;45.25
65534;BME280;53640;55.838;37.184;2024-01-07T04:39:14;99744.66;;;-22.97;45.54
65534;BME280;53640;55.838;37.184;2024-01-07T04:41:40;99748.03;;;-23.01;45.26
65534;BME280;53640;55.838;37.184;2024-01-07T04:44:07;99695.97;;;-23.42;45.14
65534;BME280;53640;55.838;37.184;2024-01-07T04:46:34;99702.78;;;-23.44;45.13
65534;BME280;53640;55.838;37.184;2024-01-07T04:49:01;99618.25;;;-24.00;45.06
65534;BME280;53640;55.838;37.184;2024-01-07T04:51:27;99756.59;;;-23.13;45.81
65534;BME280;53640;55.838;37.184;2024-01-07T04:53:54;99766.84;;;-23.15;45.79
65534;BME280;53640;55.838;37.184;2024-01-07T04:56:20;99762.56;;;-23.13;45.55
65534;BME280;53640;55.838;37.184;2024-01-07T04:58:47;99707.06;;;-23.38;45.81
65534;BME280;53640;55.838;37.184;2024-01-07T05:01:13;99726.69;;;-23.29;45.58
65534;BME280;53640;55.838;37.184;2024-01-07T05:03:39;99756.59;;;-23.16;45.72
65534;BME280;53640;55.838;37.184;2024-01-07T05:06:08;99697.63;;;-23.56;45.44
65534;BME280;53640;55.838;37.184;2024-01-07T05:08:40;99757.44;;;-23.20;45.47
65534;BME280;53640;55.838;37.184;2024-01-07T05:11:07;99752.31;;;-23.31;45.71
65534;BME280;53640;55.838;37.184;2024-01-07T05:13:35;99791.59;;;-23.21;45.20
65534;BME280;53640;55.838;37.184;2024-01-07T05:16:01;99803.53;;;-23.25;44.69
65534;BME280;53640;55.838;37.184;2024-01-07T05:18:28;99787.25;;;-23.48;44.86
65534;BME280;53640;55.838;37.184;2024-01-07T05:20:55;99818.00;;;-23.45;45.05
65534;BME280;53640;55.838;37.184;2024-01-07T05:23:21;99797.44;;;-23.67;44.84
65534;BME280;53640;55.838;37.184;2024-01-07T05:25:47;99847.03;;;-23.42;45.09
65534;BME280;53640;55.838;37.184;2024-01-07T05:28:14;99845.31;;;-23.44;45.41
65534;BME280;53640;55.838;37.184;2024-01-07T05:30:41;99817.06;;;-23.66;45.19
65534;BME280;53640;55.838;37.184;2024-01-07T05:33:07;99802.56;;;-23.67;45.09
65534;BME280;53640;55.838;37.184;2024-01-07T05:35:33;99819.63;;;-23.66;45.21
65534;BME280;53640;55.838;37.184;2024-01-07T05:38:00;99790.59;;;-23.81;45.61
65534;BME280;53640;55.838;37.184;2024-01-07T05:40:28;99813.66;;;-23.65;45.65
65534;BME280;53640;55.838;37.184;2024-01-07T05:42:54;99793.19;;;-23.71;45.43
65534;BME280;53640;55.838;37.184;2024-01-07T05:45:21;99811.13;;;-23.65;45.15
65534;BME280;53640;55.838;37.184;2024-01-07T05:47:47;99857.28;;;-23.40;44.75
65534;BME280;53640;55.838;37.184;2024-01-07T05:50:13;99835.03;;;-23.50;45.12
65534;BME280;53640;55.838;37.184;2024-01-07T05:52:42;99711.09;;;-24.24;45.38
65534;BME280;53640;55.838;37.184;2024-01-07T05:55:08;99805.13;;;-23.67;45.15
65534;BME280;53640;55.838;37.184;2024-01-07T05:57:35;99853.84;;;-23.45;45.06
65534;BME280;53640;55.838;37.184;2024-01-07T06:00:02;99829.88;;;-23.69;44.47
65534;BME280;53640;55.838;37.184;2024-01-07T06:02:40;99850.34;;;-23.66;44.23
65534;BME280;53640;55.838;37.184;2024-01-07T06:05:09;99842.66;;;-23.75;44.04
65534;BME280;53640;55.838;37.184;2024-01-07T06:07:36;99794.69;;;-24.17;44.67
65534;BME280;53640;55.838;37.184;2024-01-07T06:10:02;99748.50;;;-24.48;44.22
65534;BME280;53640;55.838;37.184;2024-01-07T06:12:29;99856.19;;;-23.96;44.29
65534;BME280;53640;55.838;37.184;2024-01-07T06:14:56;99815.09;;;-24.25;44.19
65534;BME280;53640;55.838;37.184;2024-01-07T06:17:22;99848.47;;;-24.03;44.84
65534;BME280;53640;55.838;37.184;2024-01-07T06:19:49;99845.06;;;-24.05;44.91
65534;BME280;53640;55.838;37.184;2024-01-07T06:22:15;99813.44;;;-24.17;44.96
65534;BME280;53640;55.838;37.184;2024-01-07T06:24:43;99815.16;;;-24.13;45.28
65534;BME280;53640;55.838;37.184;2024-01-07T06:27:09;99818.63;;;-24.06;45.37
65534;BME280;53640;55.838;37.184;2024-01-07T06:29:35;99823.75;;;-24.00;45.42
65534;BME280;53640;55.838;37.184;2024-01-07T06:32:02;99891.31;;;-23.69;45.38
65534;BME280;53640;55.838;37.184;2024-01-07T06:34:30;99898.13;;;-23.63;45.32
65534;BME280;53640;55.838;37.184;2024-01-07T06:36:58;99907.59;;;-23.51;45.56
65534;BME280;53640;55.838;37.184;2024-01-07T06:39:24;99888.78;;;-23.56;45.58
65534;BME280;53640;55.838;37.184;2024-01-07T06:41:53;99864.00;;;-23.64;44.93
65534;BME280;53640;55.838;37.184;2024-01-07T06:44:19;99923.03;;;-23.33;44.40
65534;BME280;53640;55.838;37.184;2024-01-07T06:46:46;99916.19;;;-23.39;43.96
65534;BME280;53640;55.838;37.184;2024-01-07T06:49:13;99885.38;;;-23.55;43.72
65534;BME280;53640;55.838;37.184;2024-01-07T06:51:39;99907.66;;;-23.42;43.74
65534;BME280;53640;55.838;37.184;2024-01-07T06:54:05;99935.88;;;-23.27;44.15
65534;BME280;53640;55.838;37.184;2024-01-07T06:56:32;99905.94;;;-23.42;44.00
65534;BME280;53640;55.838;37.184;2024-01-07T06:58:58;99897.38;;;-23.45;43.59
65534;BME280;53640;55.838;37.184;2024-01-07T07:01:24;99947.88;;;-23.15;43.44
65534;BME280;53640;55.838;37.184;2024-01-07T07:03:51;99937.59;;;-23.21;43.08
65534;BME280;53640;55.838;37.184;2024-01-07T07:06:17;99900.84;;;-23.37;43.13
65534;BME280;53640;55.838;37.184;2024-01-07T07:08:44;99900.84;;;-23.32;43.43
65534;BME280;53640;55.838;37.184;2024-01-07T07:11:10;99886.31;;;-23.41;43.46
65534;BME280;53640;55.838;37.184;2024-01-07T07:13:37;99918.84;;;-23.16;42.57
65534;BME280;53640;55.838;37.184;2024-01-07T07:16:05;99947.06;;;-23.02;42.93
65534;BME280;53640;55.838;37.184;2024-01-07T07:18:31;99935.13;;;-23.01;42.42
65534;BME280;53640;55.838;37.184;2024-01-07T07:20:57;99901.75;;;-23.23;42.40
65534;BME280;53640;55.838;37.184;2024-01-07T07:23:24;99929.97;;;-23.06;41.99
65534;BME280;53640;55.838;37.184;2024-01-07T07:25:50;99963.38;;;-22.80;41.71
65534;BME280;53640;55.838;37.184;2024-01-07T07:28:16;99953.97;;;-22.84;41.30
65534;BME280;53640;55.838;37.184;2024-01-07T07:30:43;99974.50;;;-22.69;41.90
65534;BME280;53640;55.838;37.184;2024-01-07T07:33:10;99924.91;;;-22.87;41.51
65534;BME280;53640;55.838;37.184;2024-01-07T07:35:37;99951.47;;;-22.75;41.71
65534;BME280;53640;55.838;37.184;2024-01-07T07:38:08;99964.31;;;-22.40;41.78
65534;BME280;53640;55.838;37.184;2024-01-07T07:40:34;99969.41;;;-22.41;41.10
65534;BME280;53640;55.838;37.184;2024-01-07T07:43:02;99977.16;;;-22.15;41.18
65534;BME280;53640;55.838;37.184;2024-01-07T07:45:30;99995.16;;;-21.95;41.39
65534;BME280;53640;55.838;37.184;2024-01-07T07:47:57;99932.69;;;-22.20;41.34
65534;BME280;53640;55.838;37.184;2024-01-07T07:50:23;99945.53;;;-21.99;40.91
65534;BME280;53640;55.838;37.184;2024-01-07T07:52:49;99988.28;;;-21.58;40.36
65534;BME280;53640;55.838;37.184;2024-01-07T07:55:16;99953.16;;;-21.68;40.39
65534;BME280;53640;55.838;37.184;2024-01-07T07:57:42;100005.34;;;-21.32;39.92
65534;BME280;53640;55.838;37.184;2024-01-07T08:00:09;100018.16;;;-21.12;39.80
65534;BME280;53640;55.838;37.184;2024-01-07T08:02:39;100018.97;;;-21.00;39.73
65534;BME280;53640;55.838;37.184;2024-01-07T08:05:06;100030.91;;;-20.83;39.07
65534;BME280;53640;55.838;37.184;2024-01-07T08:07:33;100012.91;;;-20.79;39.09
65534;BME280;53640;55.838;37.184;2024-01-07T08:09:59;100024.81;;;-20.62;38.28
65534;BME280;53640;55.838;37.184;2024-01-07T08:12:26;99877.75;;;-21.38;38.58
65534;BME280;53640;55.838;37.184;2024-01-07T08:14:52;99994.75;;;-20.54;38.51
65534;BME280;53640;55.838;37.184;2024-01-07T08:17:18;99980.97;;;-20.43;38.48
65534;BME280;53640;55.838;37.184;2024-01-07T08:19:45;100020.22;;;-20.08;37.85
65534;BME280;53640;55.838;37.184;2024-01-07T08:22:14;100008.25;;;-20.14;37.63
65534;BME280;53640;55.838;37.184;2024-01-07T08:24:40;99997.03;;;-20.05;37.83
65534;BME280;53640;55.838;37.184;2024-01-07T08:27:09;100006.31;;;-19.86;37.89
65534;BME280;53640;55.838;37.184;2024-01-07T08:29:36;99990.88;;;-19.84;36.81
65534;BME280;53640;55.838;37.184;2024-01-07T08:32:19;99867.78;;;-20.53;36.57
65534;BME280;53640;55.838;37.184;2024-01-07T08:34:48;100065.22;;;-19.40;36.50
65534;BME280;53640;55.838;37.184;2024-01-07T08:37:15;100039.41;;;-19.37;36.98
65534;BME280;53640;55.838;37.184;2024-01-07T08:39:41;100020.44;;;-19.30;36.98
65534;BME280;53640;55.838;37.184;2024-01-07T08:42:08;99982.69;;;-19.37;36.81
65534;BME280;53640;55.838;37.184;2024-01-07T08:44:34;100039.81;;;-18.87;36.55
65534;BME280;53640;55.838;37.184;2024-01-07T08:47:00;100022.66;;;-18.94;36.04
65534;BME280;53640;55.838;37.184;2024-01-07T08:49:30;99970.38;;;-19.10;36.43
65534;BME280;53640;55.838;37.184;2024-01-07T08:51:59;100062.34;;;-18.29;36.18
65534;BME280;53640;55.838;37.184;2024-01-07T08:54:25;99903.25;;;-19.04;35.80
65534;BME280;53640;55.838;37.184;2024-01-07T08:56:51;100033.69;;;-18.12;35.39
65534;BME280;53640;55.838;37.184;2024-01-07T08:59:18;100016.44;;;-18.12;35.00
65534;BME280;53640;55.838;37.184;2024-01-07T09:01:44;100035.16;;;-17.98;34.89
65534;BME280;53640;55.838;37.184;2024-01-07T09:04:10;100045.19;;;-17.76;34.57
65534;BME280;53640;55.838;37.184;2024-01-07T09:06:38;99966.50;;;-18.12;34.90
65534;BME280;53640;55.838;37.184;2024-01-07T09:09:04;100054.22;;;-17.46;35.24
65534;BME280;53640;55.838;37.184;2024-01-07T09:11:34;100054.88;;;-17.33;34.50
65534;BME280;53640;55.838;37.184;2024-01-07T09:14:02;100035.88;;;-17.34;34.39
65534;BME280;53640;55.838;37.184;2024-01-07T09:16:29;100016.34;;;-17.50;33.97
65534;BME280;53640;55.838;37.184;2024-01-07T09:18:56;100016.84;;;-17.30;34.30
65534;BME280;53640;55.838;37.184;2024-01-07T09:21:22;99958.69;;;-17.57;33.40
65534;BME280;53640;55.838;37.184;2024-01-07T09:23:51;100065.91;;;-16.77;33.95
65534;BME280;53640;55.838;37.184;2024-01-07T09:26:18;100061.53;;;-16.74;33.22
65534;BME280;53640;55.838;37.184;2024-01-07T09:28:44;100040.09;;;-16.80;33.15
65534;BME280;53640;55.838;37.184;2024-01-07T09:31:11;100073.28;;;-16.54;33.19
65534;BME280;53640;55.838;37.184;2024-01-07T09:33:37;100076.56;;;-16.46;33.72
65534;BME280;53640;55.838;37.184;2024-01-07T09:36:04;100003.09;;;-16.84;33.31
65534;BME280;53640;55.838;37.184;2024-01-07T09:38:30;100020.53;;;-16.52;33.52
65534;BME280;53640;55.838;37.184;2024-01-07T09:40:56;100050.97;;;-16.21;33.61
65534;BME280;53640;55.838;37.184;2024-01-07T09:43:23;100053.91;;;-15.96;33.77
65534;BME280;53640;55.838;37.184;2024-01-07T09:45:51;100052.66;;;-15.80;32.53
65534;BME280;53640;55.838;37.184;2024-01-07T09:48:19;100028.53;;;-15.82;32.52
65534;BME280;53640;55.838;37.184;2024-01-07T09:50:46;100057.38;;;-15.58;32.49
65534;BME280;53640;55.838;37.184;2024-01-07T09:53:15;100040.84;;;-15.54;32.92
65534;BME280;53640;55.838;37.184;2024-01-07T09:56:01;100080.03;;;-15.29;32.67
65534;BME280;53640;55.838;37.184;2024-01-07T09:58:31;100083.31;;;-15.22;32.15
65534;BME280;53640;55.838;37.184;2024-01-07T10:00:57;100092.81;;;-15.21;32.31
65534;BME280;53640;55.838;37.184;2024-01-07T10:03:24;100030.06;;;-15.37;32.12
65534;BME280;53640;55.838;37.184;2024-01-07T10:05:50;99969.41;;;-15.67;32.04
65534;BME280;53640;55.838;37.184;2024-01-07T10:08:18;100022.03;;;-15.26;33.24
65534;BME280;53640;55.838;37.184;2024-01-07T10:10:45;100087.16;;;-14.70;32.26
65534;BME280;53640;55.838;37.184;2024-01-07T10:13:14;100077.47;;;-14.64;31.71
65534;BME280;53640;55.838;37.184;2024-01-07T10:15:40;100061.09;;;-14.66;31.48
65534;BME280;53640;55.838;37.184;2024-01-07T10:18:07;100070.09;;;-14.48;31.93
65534;BME280;53640;55.838;37.184;2024-01-07T10:20:34;100050.84;;;-14.41;31.83
65534;BME280;53640;55.838;37.184;2024-01-07T10:23:01;100084.75;;;-14.14;31.33
65534;BME280;53640;55.838;37.184;2024-01-07T10:25:32;100048.00;;;-14.32;31.27
65534;BME280;53640;55.838;37.184;2024-01-07T10:28:01;100067.97;;;-14.02;31.59
65534;BME280;53640;55.838;37.184;2024-01-07T10:30:31;100059.88;;;-13.93;31.00
65534;BME280;53640;55.838;37.184;2024-01-07T10:32:58;100089.63;;;-13.72;30.85
65534;BME280;53640;55.838;37.184;2024-01-07T10:35:32;100057.66;;;-13.77;30.86
65534;BME280;53640;55.838;37.184;2024-01-07T10:38:01;99996.16;;;-14.08;31.05
65534;BME280;53640;55.838;37.184;2024-01-07T10:40:29;100070.19;;;-13.62;30.71
65534;BME280;53640;55.838;37.184;2024-01-07T10:42:56;100024.91;;;-13.85;30.28
65534;BME280;53640;55.838;37.184;2024-01-07T10:45:24;100034.56;;;-13.60;30.74
65534;BME280;53640;55.838;37.184;2024-01-07T10:47:54;100037.22;;;-13.62;30.44
65534;BME280;53640;55.838;37.184;2024-01-07T10:50:22;100074.47;;;-13.33;30.58
65534;BME280;53640;55.838;37.184;2024-01-07T10:52:49;100047.88;;;-13.43;30.31
65534;BME280;53640;55.838;37.184;2024-01-07T10:55:19;100067.09;;;-13.20;30.73
65534;BME280;53640;55.838;37.184;2024-01-07T10:57:49;100076.16;;;-13.06;30.40
65534;BME280;53640;55.838;37.184;2024-01-07T11:00:17;100058.00;;;-13.09;30.61
65534;BME280;53640;55.838;37.184;2024-01-07T11:03:17;100081.75;;;-12.91;30.57
65534;BME280;53640;55.838;37.184;2024-01-07T11:05:56;100085.72;;;-12.79;30.96
65534;BME280;53640;55.838;37.184;2024-01-07T11:08:44;100056.47;;;-12.88;30.30
65534;BME280;53640;55.838;37.184;2024-01-07T11:11:16;100026.63;;;-13.04;30.01
65534;BME280;53640;55.838;37.184;2024-01-07T11:13:44;100007.81;;;-13.12;30.35
65534;BME280;53640;55.838;37.184;2024-01-07T11:16:11;100059.75;;;-12.83;29.45
65534;BME280;53640;55.838;37.184;2024-01-07T11:18:45;100054.69;;;-12.87;29.38
65534;BME280;53640;55.838;37.184;2024-01-07T11:21:23;100065.66;;;-12.77;29.92
65534;BME280;53640;55.838;37.184;2024-01-07T11:23:55;100090.50;;;-12.67;29.54
65534;BME280;53640;55.838;37.184;2024-01-07T11:26:21;100081.56;;;-12.60;30.59
65534;BME280;53640;55.838;37.184;2024-01-07T11:28:55;100097.66;;;-12.47;30.94
65534;BME280;53640;55.838;37.184;2024-01-07T11:34:06;99998.53;;;-12.71;30.48
65534;BME280;53640;55.838;37.184;2024-01-07T11:36:37;99989.97;;;-12.74;29.96
65534;BME280;53640;55.838;37.184;2024-01-07T11:39:05;100051.84;;;-12.31;30.63
65534;BME280;53640;55.838;37.184;2024-01-07T11:41:35;100038.78;;;-12.29;29.82
65534;BME280;53640;55.838;37.184;2024-01-07T11:44:03;100084.63;;;-12.00;29.93
65534;BME280;53640;55.838;37.184;2024-01-07T11:46:30;100106.69;;;-11.86;29.37
65534;BME280;53640;55.838;37.184;2024-01-07T11:48:57;100108.41;;;-11.85;29.57
65534;BME280;53640;55.838;37.184;2024-01-07T11:51:29;100089.66;;;-11.96;28.68
65534;BME280;53640;55.838;37.184;2024-01-07T11:54:00;100073.63;;;-12.09;29.11
65534;BME280;53640;55.838;37.184;2024-01-07T11:56:29;100051.34;;;-12.17;29.06
65534;BME280;53640;55.838;37.184;2024-01-07T11:58:56;100090.03;;;-12.05;29.09
65534;BME280;53640;55.838;37.184;2024-01-07T12:01:25;100034.81;;;-12.41;30.03
65534;BME280;53640;55.838;37.184;2024-01-07T12:04:01;100084.81;;;-12.05;30.15
65534;BME280;53640;55.838;37.184;2024-01-07T12:06:27;100032.91;;;-12.36;30.58
65534;BME280;53640;55.838;37.184;2024-01-07T12:08:54;100069.53;;;-12.16;30.47
65534;BME280;53640;55.838;37.184;2024-01-07T12:11:21;100077.16;;;-12.10;29.69
65534;BME280;53640;55.838;37.184;2024-01-07T12:13:48;100000.63;;;-12.57;29.71
65534;BME280;53640;55.838;37.184;2024-01-07T12:16:16;100051.09;;;-12.35;28.84
65534;BME280;53640;55.838;37.184;2024-01-07T12:18:46;99954.47;;;-13.02;29.32
65534;BME280;53640;55.838;37.184;2024-01-07T12:21:19;100055.97;;;-12.49;29.65
65534;BME280;53640;55.838;37.184;2024-01-07T12:23:50;100105.59;;;-12.27;29.83
65534;BME280;53640;55.838;37.184;2024-01-07T12:26:17;100105.59;;;-12.27;30.19
65534;BME280;53640;55.838;37.184;2024-01-07T12:28:57;100060.59;;;-12.57;30.02
65534;BME280;53640;55.838;37.184;2024-01-07T12:31:26;100079.09;;;-12.63;29.19
65534;BME280;53640;55.838;37.184;2024-01-07T12:33:56;100126.22;;;-12.44;29.86
65534;BME280;53640;55.838;37.184;2024-01-07T12:36:23;100093.44;;;-12.76;30.05
65534;BME280;53640;55.838;37.184;2024-01-07T12:38:49;100144.78;;;-12.53;30.79
65534;BME280;53640;55.838;37.184;2024-01-07T12:41:17;100113.63;;;-12.83;30.60